Hannover, Germany

3:27 AM CET on February 11, 2016 (GMT +0100)
Garten im Dorf | | Change Station
CLOSE
Current Station
Personal Weather Station
Location: Langenhagen, NIEDERSACHSEN
Elevation: 180 ft
Nearby Weather Stations

Elev 180 ft 52.45 °N, 9.65 °E | Updated 17 seconds ago

Scattered Clouds
Scattered Clouds
40.6 °F
Feels Like 37 °F
N
5.6
Wind Variable Wind from WSW
Gusts 7.4 mph

Today
High -- | Low -- °F
--% Chance of Precip.
Yesterday
High -- | Low -- °F
Precip. -- in
Pressure 29.47 in
Visibility 6.2 miles
Clouds Few 1200 ft
Scattered Clouds 1800 ft
Windchill 37 °F
Dew Point 36 °F
Humidity 83%
Rainfall 0.00 in
Snow Depth Not available.
7:46 AM 5:25 PM
Waxing Crescent, 8% visible
METAR EDDV 110220Z 27014KT 9999 FEW012 SCT018 04/02 Q0998
Pressure 29.47 in
Visibility 6.2 miles
Clouds Few 1200 ft
Scattered Clouds 1800 ft
Windchill 37 °F
Dew Point 36 °F
Humidity 83%
Rainfall 0.00 in
Snow Depth Not available.
7:46 AM 5:25 PM
Waxing Crescent, 8% visible
METAR EDDV 110220Z 27014KT 9999 FEW012 SCT018 04/02 Q0998

10-Day Weather Forecast

Almanac

Astronomy

Feb. 11, 2016 Rise Set
Actual Time
Civil Twilight
Nautical Twilight
Astronomical Twilight
Moon
Length of Visible Light
Length of Day
Tomorrow will be .
, % of the Moon is Illuminated

Today's Extremes

Country Highs Country Lows

Community

WunderPhotos

Upload Photos

1,891,984 photos uploaded!

WunderBlog® & News

Nearby

Air Quality

  Air Quality AQ Index Pollutant
Not available.

Snow Depth

Station Depth Elevation

Earthquake Activity

City Distance Mag. Time & Date
Minimum magnitude displayed is 2.5.

Coastal Water Temperatures

Place Temperature

Stations

Nearby Weather Stations

Station Location Temp. Windchill Dew Point Humidity Wind Precip. Elev Updated Type